Time;durP1;ratioP1;P1;durP2;ratioP2;P2;SDS_P1;SDS_P2;PMS_P1;PMS_P2;Temp;Humidity;BMP_temperature;BMP_pressure;BME280_temperature;BME280_humidity;BME280_pressure;Samples;Min_cycle;Max_cycle;Signal;HPM_P1;HPM_P2
2022/07/27 00:00:40;;;;;;;0.10;0.10;;;;;;;14.89;84.18;101896.03;5076753;28;20498;-71
2022/07/27 00:03:06;;;;;;;1.92;0.85;;;;;;;14.90;84.03;101892.38;5074476;28;20024;-71
2022/07/27 00:05:31;;;;;;;0.28;0.20;;;;;;;14.92;84.06;101888.59;5078250;28;20543;-72
2022/07/27 00:07:57;;;;;;;4.38;0.20;;;;;;;14.93;84.33;101890.25;5081315;28;20024;-71
2022/07/27 00:10:22;;;;;;;0.40;0.20;;;;;;;14.94;85.54;101891.09;5076177;28;20110;-71
2022/07/27 00:12:47;;;;;;;0.20;0.10;;;;;;;14.92;84.31;101891.25;5076132;28;20028;-71
2022/07/27 00:15:13;;;;;;;0.82;0.40;;;;;;;14.93;85.12;101881.44;5078325;28;20044;-71
2022/07/27 00:17:38;;;;;;;0.13;0.13;;;;;;;14.90;84.32;101887.06;5080998;28;20035;-71
2022/07/27 00:20:04;;;;;;;1.90;0.43;;;;;;;14.90;83.41;101892.38;5080187;28;20052;-71
2022/07/27 00:22:29;;;;;;;0.50;0.28;;;;;;;14.88;84.74;101887.22;5079649;28;20024;-72
2022/07/27 00:24:55;;;;;;;0.45;0.30;;;;;;;14.84;85.65;101885.03;5081363;28;20400;-72
2022/07/27 00:27:20;;;;;;;3.55;0.20;;;;;;;14.80;85.33;101889.78;5080186;28;20049;-72
2022/07/27 00:29:45;;;;;;;0.40;0.20;;;;;;;14.76;85.90;101885.78;5078055;28;20062;-71
2022/07/27 00:32:11;;;;;;;0.38;0.20;;;;;;;14.74;85.82;101883.28;5080945;28;20024;-71
2022/07/27 00:34:37;;;;;;;4.47;0.80;;;;;;;14.64;85.06;101869.22;5075401;28;20067;-71
2022/07/27 00:37:03;;;;;;;0.38;0.22;;;;;;;14.56;84.46;101864.66;5077736;28;20024;-71
2022/07/27 00:39:28;;;;;;;5.57;0.50;;;;;;;14.66;84.27;101888.50;5068545;28;20110;-71
2022/07/27 00:41:54;;;;;;;0.47;0.30;;;;;;;14.67;84.59;101889.34;5076553;28;20036;-71
2022/07/27 00:44:27;;;;;;;0.15;0.15;;;;;;;14.62;84.68;101886.31;5081290;28;20362;-71
2022/07/27 00:46:57;;;;;;;1.20;0.30;;;;;;;14.44;84.98;101873.81;5077918;28;20023;-71
2022/07/27 00:49:23;;;;;;;0.35;0.35;;;;;;;14.47;84.06;101888.63;5073714;28;20389;-71
2022/07/27 00:51:49;;;;;;;0.55;0.43;;;;;;;14.42;84.35;101890.91;5076195;28;20056;-72
2022/07/27 00:54:16;;;;;;;0.30;0.30;;;;;;;14.27;84.10;101879.94;5077550;28;20036;-72
2022/07/27 00:56:41;;;;;;;0.47;0.30;;;;;;;14.28;84.11;101885.09;5079292;28;20024;-72
2022/07/27 00:59:09;;;;;;;0.35;0.35;;;;;;;14.22;84.24;101901.63;5074410;28;20035;-72
2022/07/27 01:01:35;;;;;;;0.40;0.20;;;;;;;14.15;84.44;101895.22;5074296;28;20085;-72
2022/07/27 01:04:00;;;;;;;1.73;0.40;;;;;;;14.17;85.23;101891.44;5076595;28;20091;-72
2022/07/27 01:06:27;;;;;;;0.95;0.40;;;;;;;14.13;85.57;101897.19;5078860;28;20024;-72
2022/07/27 01:09:55;;;;;;;0.47;0.15;;;;;;;14.10;84.54;101895.66;5075956;28;20436;-73
2022/07/27 01:11:39;;;;;;;0.30;0.25;;;;;;;14.08;84.87;101894.16;5074569;28;20256;-73
2022/07/27 01:14:06;;;;;;;0.85;0.32;;;;;;;14.03;84.20;101891.13;5076479;28;20416;-73
2022/07/27 01:16:32;;;;;;;0.55;0.45;;;;;;;14.07;85.62;101900.47;5073539;28;20026;-73
2022/07/27 01:18:57;;;;;;;0.45;0.38;;;;;;;13.94;85.97;101885.69;5082626;28;20032;-73
2022/07/27 01:21:22;;;;;;;0.17;0.17;;;;;;;13.98;85.58;101897.69;5074539;28;20074;-73
2022/07/27 01:23:48;;;;;;;0.50;0.30;;;;;;;13.84;86.23;101871.63;5062681;28;20473;-73
2022/07/27 01:26:13;;;;;;;3.65;0.68;;;;;;;13.84;85.95;101866.31;5063221;28;20031;-73
2022/07/27 01:28:42;;;;;;;0.15;0.15;;;;;;;13.92;85.68;101878.88;5081113;28;20042;-73
2022/07/27 01:31:07;;;;;;;1.77;0.28;;;;;;;14.04;85.82;101892.78;5072332;28;20055;-72
2022/07/27 01:33:33;;;;;;;0.32;0.30;;;;;;;14.07;85.66;101887.19;5076140;28;20025;-73
2022/07/27 01:35:58;;;;;;;0.22;0.20;;;;;;;13.95;84.98;101867.94;5073582;28;20306;-73
2022/07/27 01:38:24;;;;;;;0.82;0.50;;;;;;;14.05;85.12;101879.34;5076363;28;20104;-72
2022/07/27 01:40:51;;;;;;;2.40;0.30;;;;;;;14.15;85.10;101880.16;5074683;28;20488;-72
2022/07/27 01:43:16;;;;;;;1.67;0.25;;;;;;;14.17;85.18;101875.50;5070520;28;20009;-72
2022/07/27 01:45:42;;;;;;;0.20;0.20;;;;;;;14.17;85.41;101883.47;5076160;28;20527;-73
2022/07/27 01:48:08;;;;;;;0.40;0.20;;;;;;;14.16;85.54;101879.16;5075955;28;20032;-74
2022/07/27 01:50:34;;;;;;;2.20;0.65;;;;;;;14.16;85.53;101876.50;5074735;28;20083;-73
2022/07/27 01:52:59;;;;;;;2.53;0.20;;;;;;;14.17;85.74;101877.31;5078150;28;20492;-72
2022/07/27 01:55:24;;;;;;;0.30;0.30;;;;;;;14.13;85.47;101871.50;5079501;28;20032;-72
2022/07/27 01:57:50;;;;;;;0.20;0.10;;;;;;;14.15;85.67;101874.84;5085894;28;20124;-73
2022/07/27 02:00:15;;;;;;;0.73;0.50;;;;;;;14.11;86.22;101878.78;5072799;28;20028;-72
2022/07/27 02:02:41;;;;;;;0.20;0.20;;;;;;;14.13;86.72;101878.59;5081792;28;20075;-73
2022/07/27 02:05:10;;;;;;;0.77;0.30;;;;;;;14.14;86.38;101874.97;5078748;28;20491;-73
2022/07/27 02:07:37;;;;;;;0.17;0.13;;;;;;;14.10;86.85;101876.25;5083565;28;20039;-73
2022/07/27 02:10:03;;;;;;;2.42;0.30;;;;;;;14.11;86.16;101872.59;5084098;28;20032;-73
2022/07/27 02:12:34;;;;;;;1.02;0.63;;;;;;;14.09;85.79;101872.78;5076905;28;20298;-73
2022/07/27 02:15:15;;;;;;;2.60;0.20;;;;;;;14.09;85.55;101871.91;5071224;28;20039;-73
2022/07/27 02:17:41;;;;;;;1.30;0.95;;;;;;;14.07;85.73;101871.25;5080781;28;20078;-73
2022/07/27 02:20:08;;;;;;;0.20;0.15;;;;;;;13.95;86.20;101858.16;5072193;28;20033;-73
2022/07/27 02:22:34;;;;;;;1.27;0.47;;;;;;;13.90;84.79;101852.47;5070871;28;20082;-73
2022/07/27 02:25:00;;;;;;;0.40;0.10;;;;;;;13.98;84.38;101872.97;5077370;28;20020;-72
2022/07/27 02:27:25;;;;;;;0.95;0.20;;;;;;;13.89;84.39;101858.78;5075632;28;20032;-73
2022/07/27 02:29:52;;;;;;;0.38;0.20;;;;;;;13.91;85.51;101871.88;5078816;28;20473;-73
2022/07/27 02:32:18;;;;;;;0.30;0.20;;;;;;;13.84;86.22;101868.97;5072916;28;20328;-73
2022/07/27 02:34:43;;;;;;;0.47;0.32;;;;;;;13.75;84.77;101883.13;5073857;28;20071;-73
2022/07/27 02:37:09;;;;;;;0.82;0.30;;;;;;;13.61;86.04;101860.56;5076917;28;20070;-73
2022/07/27 02:39:34;;;;;;;0.80;0.32;;;;;;;13.61;85.27;101880.91;5075824;28;20046;-73
2022/07/27 02:42:01;;;;;;;0.98;0.47;;;;;;;13.55;87.06;101883.19;5077527;28;20020;-73
2022/07/27 02:44:27;;;;;;;1.33;0.25;;;;;;;13.50;86.60;101874.84;5083044;28;20415;-73
2022/07/27 02:46:52;;;;;;;1.75;0.90;;;;;;;13.43;86.78;101876.38;5072137;28;20037;-73
2022/07/27 02:49:18;;;;;;;0.50;0.13;;;;;;;13.24;86.66;101863.97;5075962;28;20028;-73
2022/07/27 02:51:43;;;;;;;0.40;0.30;;;;;;;13.29;86.35;101871.53;5070936;28;20726;-73
2022/07/27 02:54:08;;;;;;;1.23;0.32;;;;;;;13.24;86.85;101871.94;5058553;28;20501;-73
2022/07/27 02:56:34;;;;;;;1.38;0.55;;;;;;;13.13;87.77;101858.81;5075696;28;20041;-73
2022/07/27 02:58:59;;;;;;;0.40;0.30;;;;;;;13.18;86.34;101878.63;5073808;28;20381;-73
2022/07/27 03:01:24;;;;;;;0.20;0.20;;;;;;;13.15;86.77;101878.06;5084114;28;20032;-73
2022/07/27 03:03:50;;;;;;;1.77;0.28;;;;;;;13.12;88.27;101881.84;5075166;28;20032;-73
2022/07/27 03:06:16;;;;;;;1.10;1.00;;;;;;;13.09;87.45;101878.66;5085701;28;20351;-73
2022/07/27 03:08:41;;;;;;;0.50;0.50;;;;;;;13.05;88.47;101885.22;5061770;28;20036;-73
2022/07/27 03:11:07;;;;;;;1.70;0.57;;;;;;;12.89;88.34;101859.25;5070954;28;20111;-73
2022/07/27 03:13:33;;;;;;;0.50;0.20;;;;;;;12.80;89.90;101868.06;5065102;28;20039;-73
2022/07/27 03:15:58;;;;;;;0.22;0.10;;;;;;;12.73;90.63;101873.06;5077288;28;20485;-73
2022/07/27 03:18:23;;;;;;;0.50;0.28;;;;;;;12.66;89.96;101856.06;5076566;28;20418;-73
2022/07/27 03:20:49;;;;;;;0.20;0.20;;;;;;;12.74;90.79;101875.59;5072188;28;20028;-73
2022/07/27 03:23:16;;;;;;;2.03;0.35;;;;;;;12.74;90.21;101878.25;5073028;28;20036;-73
2022/07/27 03:25:42;;;;;;;0.38;0.17;;;;;;;12.72;90.77;101874.06;5076006;28;20031;-73
2022/07/27 03:28:07;;;;;;;2.05;0.85;;;;;;;12.65;89.67;101875.56;5071337;28;20029;-73
2022/07/27 03:30:32;;;;;;;0.20;0.15;;;;;;;12.59;90.98;101874.31;5084441;28;20705;-73
2022/07/27 03:32:58;;;;;;;1.08;0.45;;;;;;;12.51;91.29;101874.16;5071648;28;20036;-73
2022/07/27 03:35:23;;;;;;;0.30;0.22;;;;;;;12.47;90.95;101872.75;5069257;28;20067;-73
2022/07/27 03:37:48;;;;;;;0.65;0.30;;;;;;;12.41;91.17;101876.81;5073392;28;20547;-73
2022/07/27 03:40:14;;;;;;;0.60;0.35;;;;;;;12.34;92.37;101868.56;5077049;28;20044;-73
2022/07/27 03:42:39;;;;;;;0.30;0.10;;;;;;;12.35;92.89;101877.34;5073195;28;20347;-73
2022/07/27 03:45:05;;;;;;;1.65;0.52;;;;;;;12.28;91.87;101870.91;5073032;28;20031;-73
2022/07/27 03:47:31;;;;;;;2.00;0.70;;;;;;;12.31;91.81;101882.06;5076121;28;20027;-73
2022/07/27 03:49:56;;;;;;;3.20;0.60;;;;;;;12.28;92.46;101885.00;5079720;28;20412;-73
2022/07/27 03:52:22;;;;;;;0.40;0.30;;;;;;;12.14;92.72;101862.38;5078106;28;20044;-73
2022/07/27 03:54:47;;;;;;;0.47;0.30;;;;;;;12.24;92.11;101875.66;5061623;28;20042;-73
2022/07/27 03:57:13;;;;;;;0.32;0.32;;;;;;;12.22;92.18;101882.91;5079569;28;20123;-71
2022/07/27 03:59:39;;;;;;;1.15;0.68;;;;;;;12.10;91.93;101862.78;5074699;28;20029;-71
2022/07/27 04:02:04;;;;;;;0.20;0.20;;;;;;;12.18;93.04;101881.50;5081102;28;20032;-71
2022/07/27 04:04:30;;;;;;;1.30;0.57;;;;;;;12.18;92.95;101881.50;5072072;28;20028;-73
2022/07/27 04:06:55;;;;;;;7.85;1.48;;;;;;;12.16;91.83;101879.97;5068194;28;20404;-72
2022/07/27 04:09:21;;;;;;;1.05;0.30;;;;;;;12.04;92.12;101863.34;5073114;28;20032;-72
2022/07/27 04:11:46;;;;;;;0.90;0.60;;;;;;;12.16;91.27;101883.44;5074294;28;20104;-72
2022/07/27 04:14:12;;;;;;;0.38;0.22;;;;;;;12.17;92.57;101885.09;5057678;28;20079;-72
2022/07/27 04:16:38;;;;;;;0.30;0.30;;;;;;;12.20;92.45;101878.72;5075586;28;20028;-72
2022/07/27 04:19:04;;;;;;;0.47;0.20;;;;;;;12.21;90.97;101881.22;5073497;28;20021;-72
2022/07/27 04:21:29;;;;;;;0.60;0.50;;;;;;;12.25;90.36;101892.38;5073918;28;20032;-72
2022/07/27 04:23:55;;;;;;;2.58;0.40;;;;;;;12.30;91.27;101892.78;5076929;28;20059;-72
2022/07/27 04:26:20;;;;;;;0.35;0.30;;;;;;;12.40;91.17;101890.19;5073324;28;20062;-71
2022/07/27 04:28:45;;;;;;;0.30;0.20;;;;;;;12.51;91.37;101900.66;5076781;28;20096;-73
2022/07/27 04:31:11;;;;;;;0.30;0.30;;;;;;;12.66;90.68;101899.28;5068908;28;20032;-72
2022/07/27 04:33:36;;;;;;;0.73;0.32;;;;;;;12.80;89.78;101903.31;5077725;28;20119;-73
2022/07/27 04:36:02;;;;;;;0.68;0.30;;;;;;;12.93;90.46;101901.25;5069152;28;20029;-73
2022/07/27 04:38:27;;;;;;;1.17;0.60;;;;;;;12.93;89.73;101881.84;5071532;28;20040;-72
2022/07/27 04:40:53;;;;;;;0.68;0.45;;;;;;;13.13;88.93;101904.72;5070876;28;20032;-72
2022/07/27 04:43:18;;;;;;;1.95;0.65;;;;;;;13.25;89.64;101907.22;5075643;28;20112;-72
2022/07/27 04:45:43;;;;;;;0.77;0.50;;;;;;;13.24;88.47;101902.88;5074714;28;20025;-72
2022/07/27 04:48:09;;;;;;;0.40;0.30;;;;;;;13.39;89.28;101906.78;5045409;28;20055;-72
2022/07/27 04:50:46;;;;;;;1.08;0.50;;;;;;;13.45;89.20;101902.75;5059367;28;20063;-72
2022/07/27 04:53:12;;;;;;;0.30;0.20;;;;;;;13.55;88.64;101907.06;5081529;28;20146;-72
2022/07/27 04:55:42;;;;;;;1.48;0.30;;;;;;;13.63;87.97;101908.13;5081756;28;20024;-73
2022/07/27 04:58:08;;;;;;;0.52;0.40;;;;;;;13.72;87.44;101910.78;5087402;28;20039;-73
2022/07/27 05:00:33;;;;;;;1.20;0.47;;;;;;;13.70;88.08;101896.81;5079004;28;20028;-72
2022/07/27 05:02:59;;;;;;;0.20;0.20;;;;;;;13.79;88.55;101906.56;5077300;28;20071;-72
2022/07/27 05:05:24;;;;;;;2.25;1.05;;;;;;;13.92;87.14;101916.84;5079825;28;20074;-72
2022/07/27 05:07:49;;;;;;;1.23;1.10;;;;;;;13.96;87.86;101912.94;5080847;28;20032;-72
2022/07/27 05:10:15;;;;;;;0.50;0.40;;;;;;;14.02;86.91;101921.28;5082569;28;20045;-72
2022/07/27 05:12:40;;;;;;;1.23;0.52;;;;;;;13.98;87.46;101900.34;5074520;28;20115;-72
2022/07/27 05:15:06;;;;;;;0.55;0.30;;;;;;;14.16;88.51;101923.47;5069664;28;20025;-72
2022/07/27 05:17:33;;;;;;;2.65;0.47;;;;;;;14.29;87.83;101918.63;5056105;28;20027;-72
2022/07/27 05:19:59;;;;;;;5.18;0.60;;;;;;;14.39;87.85;101924.75;5072950;28;20031;-72
2022/07/27 05:22:24;;;;;;;0.45;0.35;;;;;;;14.49;88.15;101929.97;5080182;28;20032;-72
2022/07/27 05:24:50;;;;;;;1.10;0.40;;;;;;;14.49;88.80;101929.16;5078474;28;20024;-72
2022/07/27 05:27:15;;;;;;;1.55;0.47;;;;;;;14.54;88.41;101929.53;5078324;28;20035;-72
2022/07/27 05:29:40;;;;;;;2.70;0.70;;;;;;;14.37;89.06;101918.75;5065845;28;20116;-72
2022/07/27 05:32:06;;;;;;;0.80;0.43;;;;;;;14.59;88.25;101935.28;5077778;28;20038;-72
2022/07/27 05:34:32;;;;;;;2.88;0.60;;;;;;;14.63;88.66;101928.66;5074976;28;20036;-72
2022/07/27 05:36:57;;;;;;;1.65;0.60;;;;;;;14.63;88.65;101925.16;5059585;28;20547;-72
2022/07/27 05:39:22;;;;;;;5.57;0.60;;;;;;;14.82;89.33;101947.13;5055228;28;20038;-73
2022/07/27 05:41:48;;;;;;;0.93;0.90;;;;;;;14.94;89.08;101939.78;5082174;28;20038;-73
2022/07/27 05:44:13;;;;;;;5.05;1.48;;;;;;;15.10;87.57;101944.41;5052217;28;20036;-73
2022/07/27 05:46:38;;;;;;;4.18;0.52;;;;;;;15.25;87.98;101938.53;5060667;28;20029;-73
2022/07/27 05:49:04;;;;;;;0.55;0.30;;;;;;;15.48;87.95;101953.00;5074533;28;20078;-73
2022/07/27 05:51:30;;;;;;;0.45;0.45;;;;;;;15.37;88.72;101951.44;5079219;28;20535;-73
2022/07/27 05:53:57;;;;;;;1.52;0.40;;;;;;;15.51;89.51;101952.69;5076327;28;20059;-72
2022/07/27 05:56:23;;;;;;;2.65;1.23;;;;;;;15.54;89.27;101941.72;5077487;28;20024;-72
2022/07/27 05:58:48;;;;;;;1.27;0.47;;;;;;;15.77;88.00;101965.22;5078526;28;20405;-72
2022/07/27 06:01:14;;;;;;;2.15;0.30;;;;;;;15.90;86.81;101957.63;5075178;28;20484;-73
2022/07/27 06:03:39;;;;;;;2.03;0.60;;;;;;;15.97;86.59;101957.84;5072527;28;20045;-72
2022/07/27 06:08:49;;;;;;;3.17;0.77;;;;;;;16.21;83.31;101963.28;5072698;28;20054;-72
2022/07/27 06:11:14;;;;;;;0.65;0.20;;;;;;;16.31;83.33;101956.97;5068873;28;20024;-72
2022/07/27 06:13:40;;;;;;;2.05;0.45;;;;;;;16.51;82.89;101966.41;5067583;28;20060;-72
2022/07/27 06:16:05;;;;;;;1.33;0.40;;;;;;;16.87;81.91;101963.50;5067048;28;20078;-72
2022/07/27 06:18:31;;;;;;;1.00;0.20;;;;;;;17.13;80.23;101962.53;5068382;28;20059;-73
2022/07/27 06:20:56;;;;;;;1.08;0.73;;;;;;;17.23;80.32;101966.72;5068427;28;20044;-73
2022/07/27 06:23:22;;;;;;;1.70;0.68;;;;;;;17.14;80.60;101970.38;5050241;28;20028;-73
2022/07/27 06:25:47;;;;;;;2.67;0.47;;;;;;;17.21;79.53;101949.22;5064331;28;20023;-72
2022/07/27 06:28:12;;;;;;;1.20;0.55;;;;;;;17.58;79.02;101972.69;5068172;28;20489;-72
2022/07/27 06:30:41;;;;;;;3.70;0.50;;;;;;;17.84;77.32;101980.53;5068697;28;20046;-72
2022/07/27 06:33:07;;;;;;;1.02;0.43;;;;;;;17.92;77.08;101970.81;5066714;28;20055;-72
2022/07/27 06:35:33;;;;;;;0.43;0.30;;;;;;;17.84;76.01;101974.34;5061167;28;20123;-73
2022/07/27 06:37:59;;;;;;;0.40;0.30;;;;;;;17.94;75.95;101985.66;5067849;28;20024;-73
2022/07/27 06:40:24;;;;;;;1.23;0.60;;;;;;;17.91;74.94;101978.00;5050015;28;20044;-73
2022/07/27 06:42:49;;;;;;;0.65;0.25;;;;;;;17.94;76.67;101980.31;5070812;28;20032;-72
2022/07/27 06:45:15;;;;;;;0.98;0.40;;;;;;;18.11;72.91;101981.13;5072466;28;20074;-74
2022/07/27 06:47:40;;;;;;;2.58;0.52;;;;;;;17.95;71.42;101987.34;5063285;28;20024;-74
2022/07/27 06:50:07;;;;;;;2.72;0.38;;;;;;;17.75;71.72;101964.69;5064829;28;20028;-73
2022/07/27 06:52:32;;;;;;;6.53;0.50;;;;;;;18.19;73.44;101983.75;5065279;28;20165;-74
2022/07/27 06:54:58;;;;;;;1.27;0.55;;;;;;;18.99;69.84;101984.53;5069052;28;20791;-74
2022/07/27 06:57:23;;;;;;;1.20;0.30;;;;;;;19.19;67.89;101980.38;5062568;28;20110;-73
2022/07/27 06:59:49;;;;;;;1.75;0.57;;;;;;;19.90;64.76;101974.72;5068438;28;20036;-74
2022/07/27 07:02:16;;;;;;;2.15;0.40;;;;;;;20.47;63.26;101982.09;5068667;28;20027;-73
2022/07/27 07:04:42;;;;;;;0.68;0.35;;;;;;;21.17;62.92;101972.53;5069856;28;20047;-73
2022/07/27 07:07:07;;;;;;;2.20;0.40;;;;;;;21.89;59.59;101988.59;5071795;28;20035;-73
2022/07/27 07:09:33;;;;;;;1.67;0.40;;;;;;;22.78;58.13;101993.97;5071113;28;20035;-75
2022/07/27 07:11:58;;;;;;;0.52;0.30;;;;;;;23.11;56.00;101989.72;5065885;28;20039;-73
2022/07/27 07:14:25;;;;;;;3.70;0.40;;;;;;;22.58;56.45;101987.69;5067871;28;20634;-73
2022/07/27 07:16:51;;;;;;;2.55;0.30;;;;;;;22.17;56.62;101997.44;5068736;28;20028;-74
2022/07/27 07:19:16;;;;;;;2.08;0.40;;;;;;;21.60;58.50;101989.63;5069434;28;20024;-73
2022/07/27 07:21:41;;;;;;;4.95;0.50;;;;;;;21.20;59.29;102003.53;5052838;28;20089;-73
2022/07/27 07:24:07;;;;;;;1.65;0.77;;;;;;;20.81;62.21;101988.69;5068332;28;20028;-73
2022/07/27 07:26:32;;;;;;;1.02;0.93;;;;;;;20.40;62.16;101999.94;5071379;28;20029;-72
2022/07/27 07:28:58;;;;;;;2.22;0.47;;;;;;;20.08;64.33;102003.84;5068753;28;20031;-72
2022/07/27 07:31:24;;;;;;;1.38;0.57;;;;;;;19.89;64.85;102011.41;5066953;28;20056;-72
2022/07/27 07:33:50;;;;;;;3.75;0.40;;;;;;;19.77;65.09;102014.72;5069314;28;20146;-72
2022/07/27 07:36:16;;;;;;;1.55;0.30;;;;;;;19.66;64.81;102013.28;5069352;28;20028;-72
2022/07/27 07:38:42;;;;;;;1.08;0.50;;;;;;;19.35;63.58;102010.72;5072106;28;20484;-72
2022/07/27 07:41:08;;;;;;;1.45;0.38;;;;;;;19.17;63.45;101981.59;5071119;28;20031;-72
2022/07/27 07:43:35;;;;;;;3.47;0.40;;;;;;;19.26;63.06;101996.56;5069826;28;20024;-72
2022/07/27 07:46:01;;;;;;;1.13;0.20;;;;;;;19.30;64.44;102014.75;5074534;28;20036;-72
2022/07/27 07:48:26;;;;;;;1.35;0.45;;;;;;;19.20;64.21;102013.31;5074804;28;20511;-74
2022/07/27 07:50:52;;;;;;;2.28;0.40;;;;;;;19.13;63.78;101996.31;5077135;28;20084;-73
2022/07/27 07:53:17;;;;;;;0.20;0.17;;;;;;;19.22;63.50;102017.47;5070920;28;20040;-73
2022/07/27 07:55:43;;;;;;;0.85;0.20;;;;;;;19.24;63.55;102025.34;5071196;28;20375;-73
2022/07/27 07:58:08;;;;;;;0.47;0.20;;;;;;;19.32;63.01;102020.75;5074675;28;20279;-73
2022/07/27 08:00:34;;;;;;;0.43;0.20;;;;;;;19.22;63.57;102022.00;5054284;28;20036;-73
2022/07/27 08:03:00;;;;;;;1.08;0.30;;;;;;;19.17;63.52;102025.22;5078190;28;20031;-73
2022/07/27 08:05:26;;;;;;;1.90;0.88;;;;;;;19.00;63.98;102039.72;5074629;28;20012;-73
2022/07/27 08:07:52;;;;;;;1.30;0.50;;;;;;;18.85;63.72;102016.38;5076280;28;20032;-73
2022/07/27 08:10:19;;;;;;;2.00;0.88;;;;;;;18.83;61.73;102030.94;5073203;28;20050;-72
2022/07/27 08:12:48;;;;;;;0.30;0.13;;;;;;;18.74;62.25;102016.75;5055842;28;20140;-72
2022/07/27 08:15:14;;;;;;;1.20;0.32;;;;;;;18.70;61.87;102039.50;5069631;28;20531;-72
2022/07/27 08:17:41;;;;;;;0.45;0.20;;;;;;;18.79;61.84;102016.25;5070003;28;20028;-72
2022/07/27 08:20:08;;;;;;;1.73;0.30;;;;;;;19.11;61.21;102020.59;5068528;28;20031;-73
2022/07/27 08:22:34;;;;;;;0.82;0.30;;;;;;;19.47;61.49;102039.56;5069732;28;20032;-72
2022/07/27 08:25:00;;;;;;;2.22;0.30;;;;;;;19.60;59.83;102035.41;5071710;28;20040;-72
2022/07/27 08:27:26;;;;;;;0.20;0.10;;;;;;;19.77;59.52;102036.13;5073459;28;20033;-72
2022/07/27 08:29:51;;;;;;;0.70;0.30;;;;;;;20.18;59.70;102033.03;5069792;28;20033;-72
2022/07/27 08:32:16;;;;;;;0.65;0.28;;;;;;;20.91;58.16;102040.19;5068906;28;20048;-74
2022/07/27 08:34:42;;;;;;;0.35;0.10;;;;;;;21.01;56.70;102039.88;5068500;28;20119;-73
2022/07/27 08:37:07;;;;;;;0.70;0.30;;;;;;;21.19;57.33;102050.19;5065266;28;20240;-73
2022/07/27 08:39:33;;;;;;;2.70;0.38;;;;;;;21.18;55.82;102045.84;5069683;28;20341;-73
2022/07/27 08:42:04;;;;;;;1.33;0.20;;;;;;;21.29;55.64;102037.25;5068911;28;20550;-73
2022/07/27 08:44:30;;;;;;;0.75;0.47;;;;;;;21.33;54.06;102046.59;5068811;28;20538;-74
2022/07/27 08:46:56;;;;;;;0.82;0.43;;;;;;;21.77;54.14;102048.25;5070888;28;20050;-73
2022/07/27 08:49:22;;;;;;;0.98;0.35;;;;;;;22.08;54.09;102049.72;5073387;28;20583;-73
2022/07/27 08:51:49;;;;;;;0.50;0.30;;;;;;;22.26;53.24;102048.41;5079047;28;20117;-74
2022/07/27 08:54:15;;;;;;;0.98;0.30;;;;;;;22.42;52.96;102052.63;5073713;28;20033;-74
2022/07/27 08:56:42;;;;;;;0.90;0.40;;;;;;;22.47;52.75;102045.63;5078770;28;20059;-73
2022/07/27 08:59:07;;;;;;;0.80;0.28;;;;;;;22.44;52.22;102048.69;5071931;28;20028;-73
2022/07/27 09:01:35;;;;;;;0.98;0.30;;;;;;;22.54;52.88;102051.84;5069305;28;20036;-74
2022/07/27 09:04:01;;;;;;;0.30;0.30;;;;;;;22.75;52.35;102050.88;5070771;28;20391;-73
2022/07/27 09:06:45;;;;;;;1.65;0.22;;;;;;;22.68;52.54;102047.34;5068176;28;20043;-72
2022/07/27 09:09:12;;;;;;;0.90;0.57;;;;;;;23.57;50.29;102046.28;5073174;28;20378;-73
2022/07/27 09:11:38;;;;;;;1.92;0.68;;;;;;;23.76;49.67;102044.66;5068585;28;20108;-74
2022/07/27 09:14:06;;;;;;;0.75;0.40;;;;;;;23.81;48.70;102042.16;5071502;28;20610;-73
2022/07/27 09:16:32;;;;;;;1.50;0.47;;;;;;;23.65;50.35;102056.06;5072960;28;20473;-73
2022/07/27 09:18:59;;;;;;;0.20;0.10;;;;;;;23.88;48.47;102058.31;5070874;28;20039;-73
2022/07/27 09:21:25;;;;;;;0.15;0.10;;;;;;;24.10;48.55;102053.53;5069756;28;20036;-73
2022/07/27 09:24:10;;;;;;;0.50;0.38;;;;;;;24.79;48.89;102048.53;5066578;28;20039;-73
2022/07/27 09:26:36;;;;;;;2.20;0.30;;;;;;;25.81;47.13;102049.28;5071685;28;20673;-73
2022/07/27 09:29:06;;;;;;;1.48;0.43;;;;;;;25.83;46.12;102049.06;5077359;28;20035;-74
2022/07/27 09:31:32;;;;;;;4.68;0.40;;;;;;;25.61;45.32;102056.75;5076812;28;20023;-73
2022/07/27 09:34:00;;;;;;;1.65;0.43;;;;;;;25.36;46.73;102057.53;5079565;28;20567;-73
2022/07/27 09:36:27;;;;;;;0.20;0.10;;;;;;;24.78;47.32;102057.66;5073964;28;20024;-73
2022/07/27 09:39:06;;;;;;;1.58;0.30;;;;;;;24.56;48.05;102059.84;5053070;28;20067;-73
2022/07/27 09:42:00;;;;;;;1.10;0.20;;;;;;;24.67;47.26;102059.16;5074428;28;20021;-73
2022/07/27 09:44:51;;;;;;;1.33;0.28;;;;;;;24.56;48.06;102065.25;5075729;28;20114;-73
2022/07/27 09:47:27;;;;;;;0.73;0.28;;;;;;;24.09;48.32;102065.34;5075152;28;20259;-72
2022/07/27 09:49:55;;;;;;;2.03;0.98;;;;;;;23.93;48.99;102055.84;5076156;28;20039;-74
2022/07/27 09:52:31;;;;;;;0.75;0.20;;;;;;;23.85;49.06;102058.75;5076016;28;20049;-72
2022/07/27 09:55:04;;;;;;;1.13;0.40;;;;;;;23.89;49.29;102053.75;5076407;28;20055;-72
2022/07/27 09:57:30;;;;;;;2.78;0.30;;;;;;;24.52;49.46;102054.06;5078515;28;20031;-73
2022/07/27 10:00:12;;;;;;;2.15;0.52;;;;;;;25.38;48.04;102060.84;5078550;28;20020;-73
2022/07/27 10:02:39;;;;;;;0.50;0.30;;;;;;;25.53;47.00;102054.31;5074208;28;20062;-73
2022/07/27 10:05:06;;;;;;;1.08;0.40;;;;;;;26.03;46.76;102065.13;5075486;28;20020;-73
2022/07/27 10:07:32;;;;;;;0.43;0.28;;;;;;;26.48;45.99;102070.25;5077731;28;20025;-73
2022/07/27 10:09:59;;;;;;;0.40;0.15;;;;;;;26.06;44.79;102070.88;5077704;28;20528;-73
2022/07/27 10:12:28;;;;;;;0.60;0.30;;;;;;;26.57;44.59;102074.31;5072916;28;20039;-72
2022/07/27 10:14:53;;;;;;;0.63;0.30;;;;;;;27.46;42.68;102073.72;5073617;28;20032;-73
2022/07/27 10:17:18;;;;;;;0.45;0.22;;;;;;;27.40;43.15;102070.03;5078186;28;20050;-73
2022/07/27 10:19:46;;;;;;;1.13;0.30;;;;;;;27.30;44.28;102064.34;5070474;28;20020;-72
2022/07/27 10:22:13;;;;;;;1.20;0.43;;;;;;;27.80;43.55;102063.94;5075627;28;20024;-74
2022/07/27 10:24:38;;;;;;;0.80;0.28;;;;;;;27.95;44.68;102070.81;5076844;28;20032;-74
2022/07/27 10:27:27;;;;;;;1.75;0.30;;;;;;;27.72;43.00;102077.88;5074997;28;20074;-73
2022/07/27 10:29:54;;;;;;;0.60;0.30;;;;;;;27.24;43.45;102076.13;5074921;28;20527;-73
2022/07/27 10:32:29;;;;;;;1.45;0.10;;;;;;;28.64;42.75;102068.25;5078583;28;20115;-72
2022/07/27 10:34:56;;;;;;;0.40;0.22;;;;;;;29.26;41.87;102067.47;5077890;28;20028;-72
2022/07/27 10:37:31;;;;;;;0.10;0.10;;;;;;;28.37;42.62;102057.06;5077389;28;20024;-73
2022/07/27 10:43:05;;;;;;;0.38;0.28;;;;;;;26.29;45.82;102063.19;5076652;28;20412;-72
2022/07/27 10:45:39;;;;;;;1.40;0.32;;;;;;;27.05;45.06;102065.34;5077847;28;20031;-72
2022/07/27 10:48:05;;;;;;;1.02;0.40;;;;;;;26.84;45.08;102060.44;5070156;28;20032;-72
2022/07/27 10:50:31;;;;;;;1.67;0.32;;;;;;;26.81;44.89;102066.31;5071109;28;20573;-73
2022/07/27 10:52:56;;;;;;;1.25;0.32;;;;;;;28.30;44.04;102057.19;5076045;28;20047;-73
2022/07/27 10:55:31;;;;;;;0.30;0.15;;;;;;;29.84;41.03;102071.69;5066679;28;20488;-73
2022/07/27 10:58:08;;;;;;;1.33;0.30;;;;;;;29.64;41.32;102071.38;5066579;28;20255;-73
2022/07/27 11:00:49;;;;;;;0.60;0.22;;;;;;;28.90;42.53;102073.06;5067637;28;20020;-73
2022/07/27 11:03:20;;;;;;;;;;;;;;;28.13;42.80;102078.00;5073803;28;20111;-73
2022/07/27 11:06:17;;;;;;;0.57;0.10;;;;;;;28.21;43.63;102072.19;5073988;28;20447;-73
2022/07/27 11:08:45;;;;;;;1.08;0.40;;;;;;;28.69;43.80;102071.03;5075384;28;20034;-72
2022/07/27 11:11:17;;;;;;;0.80;0.50;;;;;;;27.72;43.69;102077.03;5071070;28;20032;-72
2022/07/27 11:13:43;;;;;;;1.23;0.47;;;;;;;27.01;45.74;102074.97;5071351;28;20028;-73
2022/07/27 11:16:12;;;;;;;2.13;0.40;;;;;;;26.59;45.09;102077.63;5070112;28;20054;-73
2022/07/27 11:18:40;;;;;;;0.28;0.20;;;;;;;26.88;46.56;102077.88;5068492;28;20110;-73
2022/07/27 11:21:14;;;;;;;0.32;0.13;;;;;;;26.71;45.12;102072.25;5071051;28;20480;-72
2022/07/27 11:23:40;;;;;;;0.60;0.10;;;;;;;26.61;46.08;102075.53;5069690;28;20029;-73
2022/07/27 11:26:06;;;;;;;1.00;0.20;;;;;;;28.07;44.97;102074.34;5067478;28;20020;-72
2022/07/27 11:28:33;;;;;;;0.70;0.43;;;;;;;28.38;42.82;102077.72;5053769;28;20028;-72